sensor_id;sensor_type;location;lat;lon;timestamp;P1;durP1;ratioP1;P2;durP2;ratioP2
2854;SDS011;1435;49.472;10.940;2022-11-20T00:04:23;22.83;;;15.50;;
2854;SDS011;1435;49.472;10.940;2022-11-20T00:09:24;23.73;;;16.87;;
2854;SDS011;1435;49.472;10.940;2022-11-20T00:14:28;21.03;;;15.40;;
2854;SDS011;1435;49.472;10.940;2022-11-20T00:19:29;23.57;;;15.30;;
2854;SDS011;1435;49.472;10.940;2022-11-20T00:24:31;24.67;;;14.97;;
2854;SDS011;1435;49.472;10.940;2022-11-20T00:29:34;22.10;;;15.90;;
2854;SDS011;1435;49.472;10.940;2022-11-20T00:34:36;25.50;;;14.97;;
2854;SDS011;1435;49.472;10.940;2022-11-20T00:39:38;20.07;;;13.80;;
2854;SDS011;1435;49.472;10.940;2022-11-20T00:44:41;21.57;;;15.07;;
2854;SDS011;1435;49.472;10.940;2022-11-20T00:49:42;25.63;;;15.30;;
2854;SDS011;1435;49.472;10.940;2022-11-20T00:54:44;23.00;;;15.80;;
2854;SDS011;1435;49.472;10.940;2022-11-20T00:59:47;22.53;;;15.20;;
2854;SDS011;1435;49.472;10.940;2022-11-20T01:04:49;22.43;;;16.20;;
2854;SDS011;1435;49.472;10.940;2022-11-20T01:09:51;27.70;;;15.40;;
2854;SDS011;1435;49.472;10.940;2022-11-20T01:14:54;25.00;;;16.63;;
2854;SDS011;1435;49.472;10.940;2022-11-20T01:19:56;24.20;;;16.83;;
2854;SDS011;1435;49.472;10.940;2022-11-20T01:24:58;22.23;;;14.50;;
2854;SDS011;1435;49.472;10.940;2022-11-20T01:30:01;26.50;;;17.40;;
2854;SDS011;1435;49.472;10.940;2022-11-20T01:35:03;23.70;;;16.10;;
2854;SDS011;1435;49.472;10.940;2022-11-20T01:40:06;25.13;;;16.10;;
2854;SDS011;1435;49.472;10.940;2022-11-20T01:50:44;21.30;;;15.83;;
2854;SDS011;1435;49.472;10.940;2022-11-20T01:55:47;25.73;;;16.57;;
2854;SDS011;1435;49.472;10.940;2022-11-20T02:00:50;27.50;;;15.90;;
2854;SDS011;1435;49.472;10.940;2022-11-20T02:05:55;24.87;;;16.70;;
2854;SDS011;1435;49.472;10.940;2022-11-20T02:11:03;25.80;;;16.03;;
2854;SDS011;1435;49.472;10.940;2022-11-20T02:16:04;29.47;;;16.67;;
2854;SDS011;1435;49.472;10.940;2022-11-20T02:21:13;29.20;;;17.37;;
2854;SDS011;1435;49.472;10.940;2022-11-20T02:26:23;30.23;;;18.43;;
2854;SDS011;1435;49.472;10.940;2022-11-20T02:31:28;28.77;;;18.90;;
2854;SDS011;1435;49.472;10.940;2022-11-20T02:36:30;27.00;;;17.00;;
2854;SDS011;1435;49.472;10.940;2022-11-20T02:41:35;28.77;;;19.70;;
2854;SDS011;1435;49.472;10.940;2022-11-20T02:46:38;30.60;;;19.53;;
2854;SDS011;1435;49.472;10.940;2022-11-20T02:51:40;24.53;;;17.83;;
2854;SDS011;1435;49.472;10.940;2022-11-20T02:56:43;29.60;;;18.53;;
2854;SDS011;1435;49.472;10.940;2022-11-20T03:01:45;31.00;;;18.50;;
2854;SDS011;1435;49.472;10.940;2022-11-20T03:06:46;29.40;;;17.97;;
2854;SDS011;1435;49.472;10.940;2022-11-20T03:11:49;26.43;;;17.20;;
2854;SDS011;1435;49.472;10.940;2022-11-20T03:16:51;27.23;;;17.87;;
2854;SDS011;1435;49.472;10.940;2022-11-20T03:21:53;25.67;;;16.30;;
2854;SDS011;1435;49.472;10.940;2022-11-20T03:26:56;24.60;;;16.07;;
2854;SDS011;1435;49.472;10.940;2022-11-20T03:31:58;24.67;;;15.83;;
2854;SDS011;1435;49.472;10.940;2022-11-20T03:37:00;20.70;;;13.53;;
2854;SDS011;1435;49.472;10.940;2022-11-20T03:42:03;24.07;;;18.27;;
2854;SDS011;1435;49.472;10.940;2022-11-20T03:47:25;23.30;;;16.27;;
2854;SDS011;1435;49.472;10.940;2022-11-20T03:52:27;21.73;;;14.57;;
2854;SDS011;1435;49.472;10.940;2022-11-20T03:57:30;22.50;;;15.57;;
2854;SDS011;1435;49.472;10.940;2022-11-20T04:02:32;20.80;;;14.77;;
2854;SDS011;1435;49.472;10.940;2022-11-20T04:07:34;24.93;;;16.20;;
2854;SDS011;1435;49.472;10.940;2022-11-20T04:12:37;18.90;;;14.63;;
2854;SDS011;1435;49.472;10.940;2022-11-20T04:17:39;25.10;;;15.27;;
2854;SDS011;1435;49.472;10.940;2022-11-20T04:22:41;24.00;;;17.70;;
2854;SDS011;1435;49.472;10.940;2022-11-20T04:27:44;21.07;;;15.27;;
2854;SDS011;1435;49.472;10.940;2022-11-20T04:32:46;20.60;;;13.80;;
2854;SDS011;1435;49.472;10.940;2022-11-20T04:37:47;22.00;;;15.23;;
2854;SDS011;1435;49.472;10.940;2022-11-20T04:42:53;20.30;;;13.97;;
2854;SDS011;1435;49.472;10.940;2022-11-20T04:47:55;20.10;;;13.47;;
2854;SDS011;1435;49.472;10.940;2022-11-20T04:52:57;18.03;;;14.97;;
2854;SDS011;1435;49.472;10.940;2022-11-20T04:58:00;20.27;;;14.97;;
2854;SDS011;1435;49.472;10.940;2022-11-20T05:03:02;18.20;;;13.60;;
2854;SDS011;1435;49.472;10.940;2022-11-20T05:08:04;22.10;;;14.90;;
2854;SDS011;1435;49.472;10.940;2022-11-20T05:13:07;19.40;;;13.73;;
2854;SDS011;1435;49.472;10.940;2022-11-20T05:18:09;23.93;;;14.70;;
2854;SDS011;1435;49.472;10.940;2022-11-20T05:23:11;20.07;;;12.57;;
2854;SDS011;1435;49.472;10.940;2022-11-20T05:28:14;19.13;;;12.93;;
2854;SDS011;1435;49.472;10.940;2022-11-20T05:33:15;19.87;;;12.80;;
2854;SDS011;1435;49.472;10.940;2022-11-20T05:38:18;15.90;;;13.00;;
2854;SDS011;1435;49.472;10.940;2022-11-20T05:43:21;15.20;;;11.83;;
2854;SDS011;1435;49.472;10.940;2022-11-20T05:48:23;18.60;;;13.03;;
2854;SDS011;1435;49.472;10.940;2022-11-20T05:53:25;16.30;;;12.57;;
2854;SDS011;1435;49.472;10.940;2022-11-20T05:58:28;17.20;;;12.43;;
2854;SDS011;1435;49.472;10.940;2022-11-20T06:03:31;16.83;;;11.10;;
2854;SDS011;1435;49.472;10.940;2022-11-20T06:08:33;18.50;;;12.83;;
2854;SDS011;1435;49.472;10.940;2022-11-20T06:13:36;14.43;;;11.03;;
2854;SDS011;1435;49.472;10.940;2022-11-20T06:18:38;16.77;;;12.53;;
2854;SDS011;1435;49.472;10.940;2022-11-20T06:23:40;19.77;;;12.97;;
2854;SDS011;1435;49.472;10.940;2022-11-20T06:28:44;21.53;;;13.27;;
2854;SDS011;1435;49.472;10.940;2022-11-20T06:33:46;22.47;;;13.40;;
2854;SDS011;1435;49.472;10.940;2022-11-20T06:38:48;18.50;;;11.00;;
2854;SDS011;1435;49.472;10.940;2022-11-20T06:43:51;18.63;;;13.07;;
2854;SDS011;1435;49.472;10.940;2022-11-20T06:48:53;19.60;;;13.67;;
2854;SDS011;1435;49.472;10.940;2022-11-20T06:53:55;19.43;;;12.70;;
2854;SDS011;1435;49.472;10.940;2022-11-20T06:58:58;16.53;;;11.90;;
2854;SDS011;1435;49.472;10.940;2022-11-20T07:04:04;16.60;;;11.53;;
2854;SDS011;1435;49.472;10.940;2022-11-20T07:09:06;18.77;;;12.00;;
2854;SDS011;1435;49.472;10.940;2022-11-20T07:14:09;20.97;;;13.17;;
2854;SDS011;1435;49.472;10.940;2022-11-20T07:19:11;17.47;;;13.27;;
2854;SDS011;1435;49.472;10.940;2022-11-20T07:24:12;17.30;;;12.20;;
2854;SDS011;1435;49.472;10.940;2022-11-20T07:29:16;19.83;;;12.10;;
2854;SDS011;1435;49.472;10.940;2022-11-20T07:34:17;17.07;;;12.00;;
2854;SDS011;1435;49.472;10.940;2022-11-20T07:39:19;18.90;;;11.70;;
2854;SDS011;1435;49.472;10.940;2022-11-20T07:44:23;16.93;;;13.93;;
2854;SDS011;1435;49.472;10.940;2022-11-20T07:49:24;14.93;;;10.13;;
2854;SDS011;1435;49.472;10.940;2022-11-20T07:54:26;14.70;;;9.53;;
2854;SDS011;1435;49.472;10.940;2022-11-20T07:59:29;14.60;;;10.70;;
2854;SDS011;1435;49.472;10.940;2022-11-20T08:04:31;18.30;;;10.50;;
2854;SDS011;1435;49.472;10.940;2022-11-20T08:09:33;16.07;;;10.67;;
2854;SDS011;1435;49.472;10.940;2022-11-20T08:14:36;15.33;;;10.67;;
2854;SDS011;1435;49.472;10.940;2022-11-20T08:19:38;12.17;;;9.60;;
2854;SDS011;1435;49.472;10.940;2022-11-20T08:24:39;16.70;;;11.93;;
2854;SDS011;1435;49.472;10.940;2022-11-20T08:29:42;17.13;;;11.20;;
2854;SDS011;1435;49.472;10.940;2022-11-20T08:34:44;14.40;;;8.90;;
2854;SDS011;1435;49.472;10.940;2022-11-20T08:39:46;19.10;;;12.47;;
2854;SDS011;1435;49.472;10.940;2022-11-20T08:44:49;14.63;;;10.50;;
2854;SDS011;1435;49.472;10.940;2022-11-20T08:49:51;16.00;;;11.50;;
2854;SDS011;1435;49.472;10.940;2022-11-20T08:54:53;15.23;;;10.37;;
2854;SDS011;1435;49.472;10.940;2022-11-20T08:59:56;20.17;;;11.30;;
2854;SDS011;1435;49.472;10.940;2022-11-20T09:04:57;15.87;;;11.67;;
2854;SDS011;1435;49.472;10.940;2022-11-20T09:09:59;15.60;;;10.80;;
2854;SDS011;1435;49.472;10.940;2022-11-20T09:15:03;18.57;;;12.30;;
2854;SDS011;1435;49.472;10.940;2022-11-20T09:20:05;14.77;;;11.60;;
2854;SDS011;1435;49.472;10.940;2022-11-20T09:25:08;21.00;;;13.17;;
2854;SDS011;1435;49.472;10.940;2022-11-20T09:30:12;20.27;;;14.90;;
2854;SDS011;1435;49.472;10.940;2022-11-20T09:35:14;16.97;;;13.10;;
2854;SDS011;1435;49.472;10.940;2022-11-20T09:40:19;17.33;;;13.10;;
2854;SDS011;1435;49.472;10.940;2022-11-20T09:45:25;19.30;;;14.20;;
2854;SDS011;1435;49.472;10.940;2022-11-20T09:50:41;20.80;;;13.27;;
2854;SDS011;1435;49.472;10.940;2022-11-20T09:55:47;15.90;;;12.17;;
2854;SDS011;1435;49.472;10.940;2022-11-20T10:00:52;17.63;;;12.37;;
2854;SDS011;1435;49.472;10.940;2022-11-20T10:05:56;16.50;;;13.27;;
2854;SDS011;1435;49.472;10.940;2022-11-20T10:11:03;19.90;;;13.37;;
2854;SDS011;1435;49.472;10.940;2022-11-20T10:16:17;18.20;;;13.33;;
2854;SDS011;1435;49.472;10.940;2022-11-20T10:21:29;17.80;;;13.93;;
2854;SDS011;1435;49.472;10.940;2022-11-20T10:26:39;18.33;;;13.63;;
2854;SDS011;1435;49.472;10.940;2022-11-20T10:31:52;19.30;;;13.60;;
2854;SDS011;1435;49.472;10.940;2022-11-20T10:36:59;15.13;;;13.47;;
2854;SDS011;1435;49.472;10.940;2022-11-20T10:42:08;17.07;;;14.40;;
2854;SDS011;1435;49.472;10.940;2022-11-20T10:47:14;18.33;;;13.17;;
2854;SDS011;1435;49.472;10.940;2022-11-20T10:52:19;18.57;;;14.43;;
2854;SDS011;1435;49.472;10.940;2022-11-20T10:57:35;18.90;;;13.10;;
2854;SDS011;1435;49.472;10.940;2022-11-20T11:02:53;13.90;;;12.50;;
2854;SDS011;1435;49.472;10.940;2022-11-20T11:07:57;16.07;;;12.00;;
2854;SDS011;1435;49.472;10.940;2022-11-20T11:13:00;16.47;;;11.60;;
2854;SDS011;1435;49.472;10.940;2022-11-20T11:18:04;18.27;;;15.33;;
2854;SDS011;1435;49.472;10.940;2022-11-20T11:23:10;21.10;;;16.67;;
2854;SDS011;1435;49.472;10.940;2022-11-20T11:28:30;24.47;;;16.70;;
2854;SDS011;1435;49.472;10.940;2022-11-20T11:33:33;21.33;;;15.10;;
2854;SDS011;1435;49.472;10.940;2022-11-20T11:38:36;18.10;;;15.53;;
2854;SDS011;1435;49.472;10.940;2022-11-20T11:43:39;23.80;;;14.50;;
2854;SDS011;1435;49.472;10.940;2022-11-20T11:49:26;18.33;;;14.13;;
2854;SDS011;1435;49.472;10.940;2022-11-20T11:54:31;16.33;;;13.30;;
2854;SDS011;1435;49.472;10.940;2022-11-20T11:59:41;15.27;;;12.03;;
2854;SDS011;1435;49.472;10.940;2022-11-20T12:04:50;15.60;;;12.27;;
2854;SDS011;1435;49.472;10.940;2022-11-20T12:09:57;11.67;;;9.87;;
2854;SDS011;1435;49.472;10.940;2022-11-20T12:15:01;12.17;;;9.50;;
2854;SDS011;1435;49.472;10.940;2022-11-20T12:20:10;11.20;;;9.10;;
2854;SDS011;1435;49.472;10.940;2022-11-20T12:25:15;12.27;;;7.90;;
2854;SDS011;1435;49.472;10.940;2022-11-20T12:30:21;12.63;;;9.73;;
2854;SDS011;1435;49.472;10.940;2022-11-20T12:35:32;11.80;;;8.70;;
2854;SDS011;1435;49.472;10.940;2022-11-20T12:40:46;14.80;;;11.37;;
2854;SDS011;1435;49.472;10.940;2022-11-20T12:46:04;16.43;;;9.50;;
2854;SDS011;1435;49.472;10.940;2022-11-20T12:51:26;11.90;;;9.83;;
2854;SDS011;1435;49.472;10.940;2022-11-20T12:56:51;12.40;;;9.33;;
2854;SDS011;1435;49.472;10.940;2022-11-20T13:02:03;11.57;;;9.80;;
2854;SDS011;1435;49.472;10.940;2022-11-20T13:07:17;13.60;;;10.43;;
2854;SDS011;1435;49.472;10.940;2022-11-20T13:12:22;11.70;;;9.30;;
2854;SDS011;1435;49.472;10.940;2022-11-20T13:17:30;11.80;;;9.37;;
2854;SDS011;1435;49.472;10.940;2022-11-20T13:22:43;9.00;;;7.73;;
2854;SDS011;1435;49.472;10.940;2022-11-20T13:27:47;11.47;;;8.33;;
2854;SDS011;1435;49.472;10.940;2022-11-20T13:32:50;12.50;;;9.00;;
2854;SDS011;1435;49.472;10.940;2022-11-20T13:38:02;9.13;;;7.53;;
2854;SDS011;1435;49.472;10.940;2022-11-20T13:43:11;8.83;;;7.93;;
2854;SDS011;1435;49.472;10.940;2022-11-20T13:48:21;11.87;;;7.63;;
2854;SDS011;1435;49.472;10.940;2022-11-20T13:53:29;9.23;;;7.03;;
2854;SDS011;1435;49.472;10.940;2022-11-20T13:58:44;10.37;;;7.47;;
2854;SDS011;1435;49.472;10.940;2022-11-20T14:03:57;8.80;;;6.00;;
2854;SDS011;1435;49.472;10.940;2022-11-20T14:09:01;7.70;;;6.97;;
2854;SDS011;1435;49.472;10.940;2022-11-20T14:14:04;9.23;;;6.87;;
2854;SDS011;1435;49.472;10.940;2022-11-20T14:24:40;7.60;;;6.27;;
2854;SDS011;1435;49.472;10.940;2022-11-20T14:29:41;7.37;;;6.63;;
2854;SDS011;1435;49.472;10.940;2022-11-20T14:34:46;10.23;;;7.63;;
2854;SDS011;1435;49.472;10.940;2022-11-20T14:39:52;7.27;;;6.27;;
2854;SDS011;1435;49.472;10.940;2022-11-20T14:44:56;8.37;;;6.63;;
2854;SDS011;1435;49.472;10.940;2022-11-20T14:50:00;8.73;;;6.40;;
2854;SDS011;1435;49.472;10.940;2022-11-20T14:55:04;7.73;;;6.43;;
2854;SDS011;1435;49.472;10.940;2022-11-20T15:00:07;8.67;;;6.57;;
2854;SDS011;1435;49.472;10.940;2022-11-20T15:05:20;8.47;;;7.33;;
2854;SDS011;1435;49.472;10.940;2022-11-20T15:10:25;7.90;;;7.07;;
2854;SDS011;1435;49.472;10.940;2022-11-20T15:15:29;7.77;;;6.20;;
2854;SDS011;1435;49.472;10.940;2022-11-20T15:20:33;7.50;;;6.70;;
2854;SDS011;1435;49.472;10.940;2022-11-20T15:25:38;7.63;;;6.80;;
2854;SDS011;1435;49.472;10.940;2022-11-20T15:30:41;7.90;;;7.10;;
2854;SDS011;1435;49.472;10.940;2022-11-20T15:35:43;12.27;;;8.03;;
2854;SDS011;1435;49.472;10.940;2022-11-20T15:40:47;9.00;;;6.30;;
2854;SDS011;1435;49.472;10.940;2022-11-20T15:45:49;8.93;;;7.30;;
2854;SDS011;1435;49.472;10.940;2022-11-20T15:50:54;9.57;;;7.30;;
2854;SDS011;1435;49.472;10.940;2022-11-20T15:55:59;9.10;;;7.27;;
2854;SDS011;1435;49.472;10.940;2022-11-20T16:01:01;9.17;;;7.33;;
2854;SDS011;1435;49.472;10.940;2022-11-20T16:06:03;11.40;;;8.00;;
2854;SDS011;1435;49.472;10.940;2022-11-20T16:11:06;10.20;;;7.57;;
2854;SDS011;1435;49.472;10.940;2022-11-20T16:16:11;8.83;;;6.80;;
2854;SDS011;1435;49.472;10.940;2022-11-20T16:21:20;10.10;;;8.67;;
2854;SDS011;1435;49.472;10.940;2022-11-20T16:26:28;9.63;;;7.17;;
2854;SDS011;1435;49.472;10.940;2022-11-20T16:31:31;8.23;;;7.07;;
2854;SDS011;1435;49.472;10.940;2022-11-20T16:36:33;9.77;;;8.03;;
2854;SDS011;1435;49.472;10.940;2022-11-20T16:41:36;11.27;;;8.20;;
2854;SDS011;1435;49.472;10.940;2022-11-20T16:46:38;9.83;;;7.00;;
2854;SDS011;1435;49.472;10.940;2022-11-20T16:51:40;8.70;;;7.23;;
2854;SDS011;1435;49.472;10.940;2022-11-20T16:56:43;7.93;;;7.13;;
2854;SDS011;1435;49.472;10.940;2022-11-20T17:01:46;9.07;;;7.07;;
2854;SDS011;1435;49.472;10.940;2022-11-20T17:06:48;8.27;;;6.40;;
2854;SDS011;1435;49.472;10.940;2022-11-20T17:11:52;8.47;;;6.90;;
2854;SDS011;1435;49.472;10.940;2022-11-20T17:16:54;8.77;;;6.30;;
2854;SDS011;1435;49.472;10.940;2022-11-20T17:21:56;9.33;;;7.20;;
2854;SDS011;1435;49.472;10.940;2022-11-20T17:26:59;9.93;;;6.90;;
2854;SDS011;1435;49.472;10.940;2022-11-20T17:32:00;9.27;;;7.57;;
2854;SDS011;1435;49.472;10.940;2022-11-20T17:37:02;6.10;;;5.00;;
2854;SDS011;1435;49.472;10.940;2022-11-20T17:42:05;7.13;;;6.43;;
2854;SDS011;1435;49.472;10.940;2022-11-20T17:47:25;11.47;;;8.87;;
2854;SDS011;1435;49.472;10.940;2022-11-20T17:52:27;8.87;;;7.23;;
2854;SDS011;1435;49.472;10.940;2022-11-20T17:57:30;11.93;;;8.90;;
2854;SDS011;1435;49.472;10.940;2022-11-20T18:02:49;10.67;;;9.10;;
2854;SDS011;1435;49.472;10.940;2022-11-20T18:07:51;9.90;;;8.90;;
2854;SDS011;1435;49.472;10.940;2022-11-20T18:12:54;12.07;;;9.10;;
2854;SDS011;1435;49.472;10.940;2022-11-20T18:17:56;9.30;;;8.33;;
2854;SDS011;1435;49.472;10.940;2022-11-20T18:22:58;9.97;;;8.93;;
2854;SDS011;1435;49.472;10.940;2022-11-20T18:28:02;10.57;;;8.80;;
2854;SDS011;1435;49.472;10.940;2022-11-20T18:33:04;12.43;;;10.97;;
2854;SDS011;1435;49.472;10.940;2022-11-20T18:38:05;12.63;;;10.53;;
2854;SDS011;1435;49.472;10.940;2022-11-20T18:43:10;13.50;;;12.10;;
2854;SDS011;1435;49.472;10.940;2022-11-20T18:48:30;13.03;;;11.63;;
2854;SDS011;1435;49.472;10.940;2022-11-20T18:53:33;13.10;;;11.40;;
2854;SDS011;1435;49.472;10.940;2022-11-20T18:58:36;15.90;;;12.33;;
2854;SDS011;1435;49.472;10.940;2022-11-20T19:03:39;13.43;;;12.03;;
2854;SDS011;1435;49.472;10.940;2022-11-20T19:08:42;12.50;;;11.00;;
2854;SDS011;1435;49.472;10.940;2022-11-20T19:13:46;13.47;;;12.07;;
2854;SDS011;1435;49.472;10.940;2022-11-20T19:18:47;12.57;;;11.30;;
2854;SDS011;1435;49.472;10.940;2022-11-20T19:23:51;13.13;;;9.27;;
2854;SDS011;1435;49.472;10.940;2022-11-20T19:28:55;12.67;;;10.57;;
2854;SDS011;1435;49.472;10.940;2022-11-20T19:33:58;10.93;;;9.03;;
2854;SDS011;1435;49.472;10.940;2022-11-20T19:39:01;10.03;;;8.70;;
2854;SDS011;1435;49.472;10.940;2022-11-20T19:44:07;10.43;;;7.83;;
2854;SDS011;1435;49.472;10.940;2022-11-20T19:49:10;9.30;;;7.90;;
2854;SDS011;1435;49.472;10.940;2022-11-20T19:54:13;7.20;;;6.50;;
2854;SDS011;1435;49.472;10.940;2022-11-20T19:59:17;8.87;;;6.73;;
2854;SDS011;1435;49.472;10.940;2022-11-20T20:04:18;6.60;;;5.40;;
2854;SDS011;1435;49.472;10.940;2022-11-20T20:09:20;5.73;;;4.70;;
2854;SDS011;1435;49.472;10.940;2022-11-20T20:14:24;4.27;;;3.87;;
2854;SDS011;1435;49.472;10.940;2022-11-20T20:19:26;5.30;;;4.80;;
2854;SDS011;1435;49.472;10.940;2022-11-20T20:24:28;3.80;;;3.50;;
2854;SDS011;1435;49.472;10.940;2022-11-20T20:29:31;5.40;;;4.20;;
2854;SDS011;1435;49.472;10.940;2022-11-20T20:34:33;4.40;;;4.00;;
2854;SDS011;1435;49.472;10.940;2022-11-20T20:39:35;4.93;;;4.10;;
2854;SDS011;1435;49.472;10.940;2022-11-20T20:44:38;4.60;;;4.20;;
2854;SDS011;1435;49.472;10.940;2022-11-20T20:49:58;8.43;;;4.57;;
2854;SDS011;1435;49.472;10.940;2022-11-20T20:54:59;4.93;;;4.30;;
2854;SDS011;1435;49.472;10.940;2022-11-20T21:00:03;5.50;;;3.90;;
2854;SDS011;1435;49.472;10.940;2022-11-20T21:05:06;4.10;;;3.73;;
2854;SDS011;1435;49.472;10.940;2022-11-20T21:10:08;3.17;;;2.87;;
2854;SDS011;1435;49.472;10.940;2022-11-20T21:15:12;3.23;;;2.80;;
2854;SDS011;1435;49.472;10.940;2022-11-20T21:20:14;3.37;;;2.90;;
2854;SDS011;1435;49.472;10.940;2022-11-20T21:25:30;4.77;;;2.77;;
2854;SDS011;1435;49.472;10.940;2022-11-20T21:30:33;3.30;;;2.17;;
2854;SDS011;1435;49.472;10.940;2022-11-20T21:35:35;3.57;;;2.60;;
2854;SDS011;1435;49.472;10.940;2022-11-20T21:40:37;2.70;;;2.23;;
2854;SDS011;1435;49.472;10.940;2022-11-20T21:45:41;2.20;;;2.00;;
2854;SDS011;1435;49.472;10.940;2022-11-20T21:50:42;3.30;;;2.60;;
2854;SDS011;1435;49.472;10.940;2022-11-20T21:55:51;2.23;;;1.77;;
2854;SDS011;1435;49.472;10.940;2022-11-20T22:00:54;2.43;;;2.23;;
2854;SDS011;1435;49.472;10.940;2022-11-20T22:05:57;1.77;;;1.67;;
2854;SDS011;1435;49.472;10.940;2022-11-20T22:10:59;2.00;;;1.77;;
2854;SDS011;1435;49.472;10.940;2022-11-20T22:16:04;2.60;;;1.57;;
2854;SDS011;1435;49.472;10.940;2022-11-20T22:21:06;2.80;;;2.23;;
2854;SDS011;1435;49.472;10.940;2022-11-20T22:26:09;2.83;;;1.87;;
2854;SDS011;1435;49.472;10.940;2022-11-20T22:31:13;2.77;;;1.67;;
2854;SDS011;1435;49.472;10.940;2022-11-20T22:36:16;2.60;;;1.80;;
2854;SDS011;1435;49.472;10.940;2022-11-20T22:41:20;2.00;;;1.57;;
2854;SDS011;1435;49.472;10.940;2022-11-20T22:46:25;2.27;;;2.17;;
2854;SDS011;1435;49.472;10.940;2022-11-20T22:51:29;1.87;;;1.60;;
2854;SDS011;1435;49.472;10.940;2022-11-20T22:56:32;1.50;;;1.40;;
2854;SDS011;1435;49.472;10.940;2022-11-20T23:01:35;2.40;;;1.80;;
2854;SDS011;1435;49.472;10.940;2022-11-20T23:06:37;1.53;;;1.43;;
2854;SDS011;1435;49.472;10.940;2022-11-20T23:11:39;1.07;;;1.00;;
2854;SDS011;1435;49.472;10.940;2022-11-20T23:16:42;1.80;;;1.23;;
2854;SDS011;1435;49.472;10.940;2022-11-20T23:21:44;1.33;;;1.23;;
2854;SDS011;1435;49.472;10.940;2022-11-20T23:26:46;1.37;;;1.27;;
2854;SDS011;1435;49.472;10.940;2022-11-20T23:31:50;1.50;;;1.40;;
2854;SDS011;1435;49.472;10.940;2022-11-20T23:36:52;2.37;;;1.30;;
2854;SDS011;1435;49.472;10.940;2022-11-20T23:41:54;1.27;;;1.20;;
2854;SDS011;1435;49.472;10.940;2022-11-20T23:46:57;1.33;;;1.23;;
2854;SDS011;1435;49.472;10.940;2022-11-20T23:51:59;1.90;;;1.40;;
2854;SDS011;1435;49.472;10.940;2022-11-20T23:57:00;1.77;;;1.50;;
